createdAt,value
2019-02-18T00:01:38.802Z,7.80
2019-02-18T00:04:09.392Z,7.30
2019-02-18T00:06:39.863Z,7.57
2019-02-18T00:09:10.334Z,7.67
2019-02-18T00:11:40.762Z,8.10
2019-02-18T00:14:11.185Z,8.13
2019-02-18T00:16:41.617Z,9.10
2019-02-18T00:19:12.048Z,8.30
2019-02-18T00:21:42.471Z,8.27
2019-02-18T00:24:12.906Z,9.07
2019-02-18T00:26:43.350Z,8.10
2019-02-18T00:29:13.885Z,9.17
2019-02-18T00:31:44.279Z,9.57
2019-02-18T00:34:14.776Z,9.27
2019-02-18T00:36:45.368Z,8.73
2019-02-18T00:39:15.767Z,9.23
2019-02-18T00:41:46.194Z,8.90
2019-02-18T00:44:16.633Z,8.63
2019-02-18T00:46:47.046Z,9.70
2019-02-18T00:49:17.476Z,8.60
2019-02-18T00:51:47.915Z,10.80
2019-02-18T00:54:29.994Z,10.17
2019-02-18T00:57:00.497Z,10.03
2019-02-18T00:59:31.469Z,9.87
2019-02-18T01:02:01.897Z,9.57
2019-02-18T01:04:32.325Z,8.47
2019-02-18T01:07:02.762Z,9.80
2019-02-18T01:09:33.227Z,10.43
2019-02-18T01:12:03.706Z,11.23
2019-02-18T01:14:34.144Z,10.23
2019-02-18T01:17:04.780Z,9.93
2019-02-18T01:19:35.410Z,9.03
2019-02-18T01:22:05.825Z,9.87
2019-02-18T01:24:36.260Z,10.43
2019-02-18T01:27:06.702Z,10.87
2019-02-18T01:29:37.238Z,9.27
2019-02-18T01:32:07.635Z,10.23
2019-02-18T01:34:38.056Z,9.53
2019-02-18T01:37:08.486Z,9.33
2019-02-18T01:39:38.919Z,9.77
2019-02-18T01:42:09.371Z,8.67
2019-02-18T01:44:39.769Z,9.50
2019-02-18T01:47:10.196Z,9.20
2019-02-18T01:49:40.635Z,9.80
2019-02-18T01:52:11.050Z,9.80
2019-02-18T01:54:42.705Z,8.37
2019-02-18T01:57:13.238Z,8.13
2019-02-18T01:59:45.198Z,9.17
2019-02-18T02:02:15.625Z,8.60
2019-02-18T02:04:46.054Z,8.70
2019-02-18T02:07:16.477Z,8.27
2019-02-18T02:09:46.916Z,7.70
2019-02-18T02:12:17.393Z,7.73
2019-02-18T02:14:47.861Z,7.80
2019-02-18T02:17:19.825Z,8.17
2019-02-18T02:19:50.251Z,8.37
2019-02-18T02:22:20.679Z,7.50
2019-02-18T02:24:51.118Z,7.60
2019-02-18T02:27:22.982Z,7.93
2019-02-18T02:29:53.815Z,8.13
2019-02-18T02:32:24.230Z,8.17
2019-02-18T02:34:54.840Z,8.20
2019-02-18T02:37:25.301Z,7.77
2019-02-18T02:39:55.718Z,7.73
2019-02-18T02:42:26.196Z,7.17
2019-02-18T02:44:56.892Z,7.37
2019-02-18T02:47:27.526Z,7.10
2019-02-18T02:49:58.153Z,7.27
2019-02-18T02:52:28.570Z,7.27
2019-02-18T02:54:59.005Z,7.27
2019-02-18T02:57:29.424Z,7.47
2019-02-18T02:59:59.850Z,6.53
2019-02-18T03:02:30.494Z,7.00
2019-02-18T03:05:00.909Z,7.20
2019-02-18T03:07:31.334Z,7.23
2019-02-18T03:10:01.751Z,6.47
2019-02-18T03:12:32.199Z,7.67
2019-02-18T03:15:02.643Z,6.40
2019-02-18T03:17:33.044Z,7.93
2019-02-18T03:20:03.484Z,6.77
2019-02-18T03:22:33.907Z,7.53
2019-02-18T03:25:17.300Z,6.33
2019-02-18T03:27:47.875Z,7.07
2019-02-18T03:30:44.601Z,6.93
2019-02-18T03:33:17.341Z,6.77
2019-02-18T03:35:47.820Z,6.73
2019-02-18T03:38:18.239Z,6.20
2019-02-18T03:40:48.667Z,6.97
2019-02-18T03:43:19.325Z,6.20
2019-02-18T03:45:49.708Z,6.10
2019-02-18T03:48:20.152Z,6.50
2019-02-18T03:50:50.577Z,6.13
2019-02-18T03:53:21.168Z,6.17
2019-02-18T03:55:51.654Z,5.67
2019-02-18T03:58:22.065Z,6.23
2019-02-18T04:00:52.771Z,5.77
2019-02-18T04:03:24.623Z,5.83
2019-02-18T04:05:55.086Z,5.43
2019-02-18T04:08:25.527Z,5.40
2019-02-18T04:10:55.938Z,6.03
2019-02-18T04:13:26.366Z,5.80
2019-02-18T04:15:56.862Z,5.80
2019-02-18T04:18:27.347Z,6.43
2019-02-18T04:20:57.761Z,5.90
2019-02-18T04:23:28.188Z,5.83
2019-02-18T04:25:58.606Z,6.13
2019-02-18T04:28:29.045Z,5.40
2019-02-18T04:30:59.778Z,6.03
2019-02-18T04:33:30.191Z,5.83
2019-02-18T04:36:00.624Z,5.90
2019-02-18T04:38:31.048Z,6.10
2019-02-18T04:41:01.474Z,5.83
2019-02-18T04:43:31.901Z,5.83
2019-02-18T04:46:21.082Z,6.30
2019-02-18T04:48:51.500Z,5.77
2019-02-18T04:51:21.925Z,6.07
2019-02-18T04:53:52.348Z,5.87
2019-02-18T04:56:22.789Z,6.20
2019-02-18T04:58:53.202Z,5.80
2019-02-18T05:01:23.649Z,6.70
2019-02-18T05:03:54.333Z,6.47
2019-02-18T05:06:25.539Z,6.10
2019-02-18T05:09:05.059Z,6.17
2019-02-18T05:11:28.236Z,6.10
2019-02-18T05:13:58.744Z,6.37
2019-02-18T05:16:29.173Z,6.80
2019-02-18T05:18:59.671Z,7.73
2019-02-18T05:21:30.117Z,6.63
2019-02-18T05:24:00.550Z,5.80
2019-02-18T05:26:30.969Z,6.20
2019-02-18T05:29:01.424Z,6.17
2019-02-18T05:31:31.970Z,6.00
2019-02-18T05:34:02.678Z,6.83
2019-02-18T05:36:33.309Z,6.10
2019-02-18T05:39:04.761Z,6.37
2019-02-18T05:41:35.196Z,6.60
2019-02-18T05:44:05.609Z,7.10
2019-02-18T05:46:36.038Z,6.50
2019-02-18T05:49:06.453Z,6.60
2019-02-18T05:51:36.910Z,6.40
2019-02-18T05:54:07.410Z,6.47
2019-02-18T05:56:37.837Z,6.47
2019-02-18T05:59:08.261Z,6.50
2019-02-18T06:01:38.690Z,6.13
2019-02-18T06:04:09.131Z,5.80
2019-02-18T06:06:39.710Z,6.60
2019-02-18T06:09:10.177Z,6.73
2019-02-18T06:11:40.702Z,5.50
2019-02-18T06:14:11.135Z,5.70
2019-02-18T06:16:41.775Z,6.53
2019-02-18T06:19:12.509Z,6.00
2019-02-18T06:21:42.990Z,6.10
2019-02-18T06:24:13.454Z,6.23
2019-02-18T06:26:43.883Z,6.50
2019-02-18T06:29:14.329Z,6.50
2019-02-18T06:31:44.861Z,7.60
2019-02-18T06:34:15.366Z,7.73
2019-02-18T06:36:45.793Z,6.00
2019-02-18T06:39:16.223Z,6.57
2019-02-18T06:41:46.648Z,6.03
2019-02-18T06:44:18.681Z,5.13
2019-02-18T06:47:10.860Z,6.57
2019-02-18T06:49:41.276Z,5.40
2019-02-18T06:52:11.770Z,5.70
2019-02-18T06:54:42.238Z,5.20
2019-02-18T06:57:30.086Z,6.63
2019-02-18T07:00:03.069Z,5.93
2019-02-18T07:02:56.226Z,5.20
2019-02-18T07:06:03.813Z,5.77
2019-02-18T07:08:47.359Z,4.87
2019-02-18T07:11:36.116Z,5.63
2019-02-18T07:14:06.748Z,6.40
2019-02-18T07:16:37.380Z,6.37
2019-02-18T07:19:08.014Z,5.93
2019-02-18T07:21:38.644Z,5.40
2019-02-18T07:24:09.282Z,5.90
2019-02-18T07:26:39.906Z,5.10
2019-02-18T07:29:10.542Z,6.20
2019-02-18T07:31:41.068Z,6.07
2019-02-18T07:34:11.487Z,6.00
2019-02-18T07:36:41.914Z,5.93
2019-02-18T07:39:12.348Z,5.70
2019-02-18T07:41:42.775Z,6.60
2019-02-18T07:44:13.193Z,6.67
2019-02-18T07:46:43.616Z,6.50
2019-02-18T07:49:14.046Z,7.13
2019-02-18T07:51:44.692Z,5.60
2019-02-18T07:54:15.325Z,6.77
2019-02-18T07:56:45.959Z,6.43
2019-02-18T07:59:16.368Z,5.37
2019-02-18T08:01:46.810Z,5.40
2019-02-18T08:04:18.259Z,5.87
2019-02-18T08:06:48.844Z,5.47
2019-02-18T08:09:19.306Z,5.60
2019-02-18T08:11:49.732Z,6.70
2019-02-18T08:14:20.169Z,6.17
2019-02-18T08:16:50.589Z,6.10
2019-02-18T08:19:21.012Z,5.57
2019-02-18T08:21:51.449Z,5.03
2019-02-18T08:24:21.866Z,5.80
2019-02-18T08:26:52.345Z,6.10
2019-02-18T08:29:22.821Z,6.37
2019-02-18T08:31:53.272Z,5.40
2019-02-18T08:34:23.894Z,5.30
2019-02-18T08:36:54.421Z,5.50
2019-02-18T08:39:24.848Z,5.87
2019-02-18T08:41:55.265Z,5.10
2019-02-18T08:44:25.689Z,4.53
2019-02-18T08:46:56.117Z,5.20
2019-02-18T08:49:26.546Z,3.67
2019-02-18T08:51:56.970Z,3.57
2019-02-18T08:54:27.411Z,3.67
2019-02-18T08:56:58.430Z,3.90
2019-02-18T08:59:28.874Z,3.50
2019-02-18T09:01:59.293Z,2.97
2019-02-18T09:04:29.732Z,3.00
2019-02-18T09:07:00.354Z,2.90
2019-02-18T09:09:30.781Z,2.37
2019-02-18T09:12:01.206Z,2.40
2019-02-18T09:14:31.635Z,2.47
2019-02-18T09:17:02.061Z,2.50
2019-02-18T09:19:32.487Z,3.20
2019-02-18T09:22:21.872Z,2.50
2019-02-18T09:24:58.853Z,2.97
2019-02-18T09:27:29.422Z,2.93
2019-02-18T09:29:59.853Z,3.23
2019-02-18T09:32:30.453Z,2.67
2019-02-18T09:35:01.938Z,3.40
2019-02-18T09:37:32.712Z,4.07
2019-02-18T09:40:03.144Z,3.40
2019-02-18T09:42:33.581Z,4.20
2019-02-18T09:45:03.997Z,4.50
2019-02-18T09:47:34.642Z,2.03
2019-02-18T09:50:05.323Z,2.60
2019-02-18T09:52:35.790Z,2.33
2019-02-18T09:55:06.685Z,2.83
2019-02-18T09:57:37.158Z,3.57
2019-02-18T10:00:08.474Z,2.93
2019-02-18T10:02:38.929Z,2.00
2019-02-18T10:05:09.369Z,1.60
2019-02-18T10:07:40.091Z,1.60
2019-02-18T10:10:10.678Z,1.80
2019-02-18T10:12:41.149Z,2.30
2019-02-18T10:15:11.782Z,2.27
2019-02-18T10:17:42.278Z,1.80
2019-02-18T10:20:12.739Z,1.97
2019-02-18T10:22:43.168Z,2.97
2019-02-18T10:25:13.693Z,2.23
2019-02-18T10:27:44.134Z,2.20
2019-02-18T10:30:14.767Z,1.90
2019-02-18T10:32:45.210Z,1.40
2019-02-18T10:35:15.767Z,1.90
2019-02-18T10:37:54.782Z,2.10
2019-02-18T10:40:18.307Z,1.90
2019-02-18T10:42:48.730Z,1.53
2019-02-18T10:45:19.160Z,2.13
2019-02-18T10:47:49.588Z,1.97
2019-02-18T10:50:20.056Z,1.67
2019-02-18T10:52:50.543Z,1.47
2019-02-18T10:55:21.279Z,1.30
2019-02-18T10:57:51.706Z,2.50
2019-02-18T11:00:22.141Z,1.17
2019-02-18T11:02:52.581Z,1.30
2019-02-18T11:05:22.984Z,1.90
2019-02-18T11:07:53.415Z,2.60
2019-02-18T11:10:24.014Z,3.73
2019-02-18T11:12:54.474Z,5.90
2019-02-18T11:15:24.897Z,3.80
2019-02-18T11:17:55.321Z,3.30
2019-02-18T11:20:25.765Z,4.63
2019-02-18T11:22:56.229Z,4.87
2019-02-18T11:25:26.722Z,5.47
2019-02-18T11:27:57.159Z,4.20
2019-02-18T11:30:27.676Z,2.90
2019-02-18T11:32:58.283Z,2.30
2019-02-18T11:35:28.721Z,1.60
2019-02-18T11:37:59.214Z,2.20
2019-02-18T11:40:32.080Z,2.43
2019-02-18T11:43:01.950Z,2.67
2019-02-18T11:45:34.902Z,2.43
2019-02-18T11:48:05.579Z,2.53
2019-02-18T11:50:36.315Z,2.10
2019-02-18T11:53:06.732Z,1.80
2019-02-18T11:55:38.915Z,1.43
2019-02-18T11:58:09.232Z,1.27
2019-02-18T12:00:39.648Z,1.60
2019-02-18T12:03:12.620Z,1.30
2019-02-18T12:05:42.169Z,1.30
2019-02-18T12:08:12.582Z,1.30
2019-02-18T12:10:42.998Z,1.63
2019-02-18T12:13:13.526Z,1.30
2019-02-18T12:15:44.169Z,1.50
2019-02-18T12:18:14.801Z,1.63
2019-02-18T12:20:45.730Z,1.97
2019-02-18T12:23:16.153Z,1.03
2019-02-18T12:25:46.583Z,1.07
2019-02-18T12:28:17.017Z,1.40
2019-02-18T12:30:47.451Z,1.03
2019-02-18T12:33:17.929Z,1.30
2019-02-18T12:35:48.650Z,1.73
2019-02-18T12:38:19.127Z,1.40
2019-02-18T12:40:49.553Z,1.27
2019-02-18T12:43:19.982Z,1.40
2019-02-18T12:45:50.405Z,1.20
2019-02-18T12:48:21.110Z,0.90
2019-02-18T12:50:51.570Z,1.40
2019-02-18T12:53:21.992Z,1.10
2019-02-18T12:55:52.423Z,1.60
2019-02-18T12:58:22.852Z,1.20
2019-02-18T13:00:53.496Z,1.13
2019-02-18T13:03:24.319Z,1.50
2019-02-18T13:05:54.760Z,1.10
2019-02-18T13:08:25.322Z,1.30
2019-02-18T13:10:55.802Z,1.03
2019-02-18T13:13:26.344Z,1.03
2019-02-18T13:15:56.781Z,1.53
2019-02-18T13:18:27.186Z,0.87
2019-02-18T13:20:57.628Z,1.30
2019-02-18T13:23:27.983Z,1.20
2019-02-18T13:25:58.469Z,1.03
2019-02-18T13:28:29.112Z,1.10
2019-02-18T13:30:59.527Z,0.97
2019-02-18T13:33:29.978Z,0.93
2019-02-18T13:36:00.504Z,0.90
2019-02-18T13:38:31.045Z,1.00
2019-02-18T13:41:01.436Z,1.10
2019-02-18T13:43:31.871Z,1.60
2019-02-18T13:46:02.296Z,1.10
2019-02-18T13:48:33.027Z,1.30
2019-02-18T13:51:03.464Z,1.30
2019-02-18T13:53:33.881Z,1.40
2019-02-18T13:56:28.245Z,1.30
2019-02-18T13:58:54.194Z,1.57
2019-02-18T14:01:48.194Z,1.73
2019-02-18T14:04:18.698Z,2.17
2019-02-18T14:06:49.197Z,2.60
2019-02-18T14:09:20.506Z,2.50
2019-02-18T14:11:50.901Z,2.47
2019-02-18T14:14:21.549Z,2.87
2019-02-18T14:16:51.961Z,2.30
2019-02-18T14:19:22.384Z,1.67
2019-02-18T14:21:53.016Z,2.10
2019-02-18T14:24:23.450Z,2.03
2019-02-18T14:26:53.877Z,1.87
2019-02-18T14:29:24.301Z,1.80
2019-02-18T14:31:54.727Z,2.10
2019-02-18T14:34:25.519Z,2.63
2019-02-18T14:36:56.208Z,2.27
2019-02-18T14:39:27.473Z,1.73
2019-02-18T14:41:57.882Z,1.90
2019-02-18T14:44:28.298Z,1.83
2019-02-18T14:46:58.724Z,1.90
2019-02-18T14:49:29.152Z,1.40
2019-02-18T14:51:59.979Z,1.40
2019-02-18T14:54:30.413Z,1.63
2019-02-18T14:57:00.943Z,1.80
2019-02-18T14:59:31.677Z,1.50
2019-02-18T15:02:02.309Z,1.70
2019-02-18T15:04:32.736Z,1.63
2019-02-18T15:07:03.166Z,1.77
2019-02-18T15:09:53.781Z,2.60
2019-02-18T15:12:32.730Z,2.33
2019-02-18T15:14:57.585Z,2.10
2019-02-18T15:17:28.015Z,2.30
2019-02-18T15:19:58.438Z,1.97
2019-02-18T15:22:28.865Z,2.90
2019-02-18T15:24:59.601Z,2.60
2019-02-18T15:27:30.024Z,2.40
2019-02-18T15:30:00.458Z,1.80
2019-02-18T15:32:30.881Z,2.10
2019-02-18T15:35:01.369Z,2.13
2019-02-18T15:37:32.157Z,2.20
2019-02-18T15:40:02.731Z,1.80
2019-02-18T15:42:41.531Z,2.00
2019-02-18T15:45:05.453Z,2.07
2019-02-18T15:47:35.906Z,2.63
2019-02-18T15:50:06.998Z,2.37
2019-02-18T15:52:37.474Z,2.00
2019-02-18T15:55:08.618Z,2.27
2019-02-18T15:57:39.043Z,2.20
2019-02-18T16:00:12.899Z,2.07
2019-02-18T16:02:43.377Z,2.57
2019-02-18T16:05:13.805Z,2.30
2019-02-18T16:07:44.450Z,3.07
2019-02-18T16:10:14.870Z,2.17
2019-02-18T16:12:50.944Z,2.90
2019-02-18T16:15:17.471Z,2.67
2019-02-18T16:17:48.096Z,2.60
2019-02-18T16:20:18.517Z,2.60
2019-02-18T16:22:48.946Z,2.50
2019-02-18T16:25:20.757Z,2.60
2019-02-18T16:27:51.252Z,2.23
2019-02-18T16:30:21.880Z,2.20
2019-02-18T16:32:52.393Z,2.23
2019-02-18T16:35:22.936Z,2.60
2019-02-18T16:37:53.671Z,2.00
2019-02-18T16:40:24.494Z,2.03
2019-02-18T16:42:59.273Z,2.13
2019-02-18T16:45:28.573Z,2.00
2019-02-18T16:47:59.272Z,1.93
2019-02-18T16:50:29.901Z,2.40
2019-02-18T16:53:00.318Z,2.60
2019-02-18T16:55:30.742Z,2.90
2019-02-18T16:58:01.170Z,2.60
2019-02-18T17:00:33.759Z,2.63
2019-02-18T17:03:04.174Z,2.13
2019-02-18T17:05:34.602Z,2.37
2019-02-18T17:08:05.032Z,2.20
2019-02-18T17:10:35.666Z,1.97
2019-02-18T17:13:08.448Z,2.33
2019-02-18T17:15:38.285Z,2.30
2019-02-18T17:18:08.785Z,2.13
2019-02-18T17:20:39.208Z,2.37
2019-02-18T17:23:09.946Z,2.27
2019-02-18T17:25:40.376Z,2.80
2019-02-18T17:28:10.797Z,3.87
2019-02-18T17:30:43.345Z,3.60
2019-02-18T17:33:15.225Z,4.13
2019-02-18T17:35:45.720Z,3.93
2019-02-18T17:38:16.193Z,3.97
2019-02-18T17:40:46.618Z,3.40
2019-02-18T17:43:17.060Z,3.90
2019-02-18T17:45:47.888Z,3.80
2019-02-18T17:48:18.311Z,3.77
2019-02-18T17:50:49.045Z,4.07
2019-02-18T17:53:19.473Z,4.10
2019-02-18T17:55:49.898Z,3.50
2019-02-18T17:58:20.327Z,3.70
2019-02-18T18:00:54.041Z,3.63
2019-02-18T18:03:25.117Z,4.23
2019-02-18T18:05:55.502Z,4.80
2019-02-18T18:08:25.925Z,5.97
2019-02-18T18:10:56.525Z,5.67
2019-02-18T18:13:26.994Z,6.23
2019-02-18T18:15:57.456Z,4.23
2019-02-18T18:18:28.041Z,5.37
2019-02-18T18:20:58.473Z,5.03
2019-02-18T18:23:30.896Z,4.87
2019-02-18T18:26:01.372Z,5.07
2019-02-18T18:28:31.802Z,4.07
2019-02-18T18:31:02.633Z,4.40
2019-02-18T18:33:33.072Z,3.73
2019-02-18T18:36:03.751Z,3.20
2019-02-18T18:38:34.223Z,3.17
2019-02-18T18:41:04.738Z,3.00
2019-02-18T18:43:35.601Z,4.07
2019-02-18T18:46:06.290Z,3.47
2019-02-18T18:48:36.967Z,3.70
2019-02-18T18:51:07.399Z,3.80
2019-02-18T18:53:38.844Z,3.13
2019-02-18T18:56:09.271Z,2.93
2019-02-18T18:58:39.684Z,3.47
2019-02-18T19:01:10.113Z,5.77
2019-02-18T19:03:40.645Z,4.57
2019-02-18T19:06:11.106Z,5.57
2019-02-18T19:08:41.615Z,5.33
2019-02-18T19:11:12.025Z,4.87
2019-02-18T19:13:42.467Z,4.83
2019-02-18T19:16:12.881Z,4.03
2019-02-18T19:18:43.364Z,4.50
2019-02-18T19:21:13.917Z,3.73
2019-02-18T19:23:44.382Z,4.60
2019-02-18T19:26:14.792Z,5.63
2019-02-18T19:28:46.522Z,5.63
2019-02-18T19:31:17.083Z,5.33
2019-02-18T19:33:47.509Z,5.53
2019-02-18T19:36:18.305Z,4.17
2019-02-18T19:38:48.774Z,4.60
2019-02-18T19:41:19.197Z,3.43
2019-02-18T19:43:50.502Z,3.07
2019-02-18T19:46:21.088Z,2.73
2019-02-18T19:48:51.709Z,3.53
2019-02-18T19:51:22.353Z,3.70
2019-02-18T19:53:52.985Z,3.10
2019-02-18T19:56:23.615Z,3.73
2019-02-18T19:58:54.248Z,3.23
2019-02-18T20:01:25.175Z,3.17
2019-02-18T20:03:55.621Z,2.73
2019-02-18T20:06:26.028Z,2.63
2019-02-18T20:08:56.458Z,2.10
2019-02-18T20:11:27.442Z,2.27
2019-02-18T20:13:59.047Z,2.30
2019-02-18T20:16:29.580Z,2.50
2019-02-18T20:19:01.629Z,2.10
2019-02-18T20:21:32.127Z,2.20
2019-02-18T20:24:02.601Z,1.93
2019-02-18T20:26:33.030Z,2.20
2019-02-18T20:29:03.461Z,2.10
2019-02-18T20:31:33.895Z,2.27
2019-02-18T20:34:04.316Z,2.47
2019-02-18T20:36:34.760Z,2.10
2019-02-18T20:39:06.369Z,1.90
2019-02-18T20:41:37.027Z,2.07
2019-02-18T20:44:07.793Z,2.10
2019-02-18T20:46:38.286Z,1.93
2019-02-18T20:49:08.730Z,2.20
2019-02-18T20:51:39.143Z,2.30
2019-02-18T20:54:11.053Z,2.17
2019-02-18T20:56:41.544Z,2.13
2019-02-18T20:59:12.082Z,2.43
2019-02-18T21:01:42.499Z,1.97
2019-02-18T21:04:12.914Z,1.93
2019-02-18T21:06:43.353Z,2.47
2019-02-18T21:09:13.768Z,2.33
2019-02-18T21:11:44.197Z,2.10
2019-02-18T21:14:16.333Z,2.77
2019-02-18T21:16:46.690Z,2.33
2019-02-18T21:19:17.126Z,2.27
2019-02-18T21:21:47.661Z,2.67
2019-02-18T21:24:18.392Z,2.73
2019-02-18T21:26:48.807Z,5.10
2019-02-18T21:29:19.246Z,2.80
2019-02-18T21:31:49.659Z,2.60
2019-02-18T21:34:20.399Z,2.53
2019-02-18T21:36:50.934Z,3.23
2019-02-18T21:39:21.486Z,3.33
2019-02-18T21:41:51.891Z,3.67
2019-02-18T21:44:25.412Z,3.60
2019-02-18T21:46:54.382Z,2.83
2019-02-18T21:49:25.016Z,3.60
2019-02-18T21:51:55.548Z,3.67
2019-02-18T21:54:26.281Z,4.20
2019-02-18T21:56:56.811Z,3.70
2019-02-18T21:59:28.658Z,4.03
2019-02-18T22:01:59.085Z,4.53
2019-02-18T22:04:29.511Z,3.60
2019-02-18T22:07:01.545Z,3.30
2019-02-18T22:09:32.006Z,3.53
2019-02-18T22:12:02.442Z,3.33
2019-02-18T22:14:35.249Z,3.27
2019-02-18T22:17:05.293Z,3.17
2019-02-18T22:19:35.757Z,3.50
2019-02-18T22:22:06.185Z,3.57
2019-02-18T22:24:36.615Z,3.60
2019-02-18T22:27:07.088Z,3.80
2019-02-18T22:29:37.583Z,3.83
2019-02-18T22:32:07.997Z,3.90
2019-02-18T22:34:58.713Z,3.90
2019-02-18T22:37:29.447Z,3.57
2019-02-18T22:39:59.917Z,3.40
2019-02-18T22:42:30.607Z,3.90
2019-02-18T22:45:01.237Z,3.93
2019-02-18T22:47:31.653Z,4.03
2019-02-18T22:50:02.080Z,3.90
2019-02-18T22:52:32.914Z,3.73
2019-02-18T22:55:03.341Z,3.30
2019-02-18T22:57:33.837Z,4.30
2019-02-18T23:00:05.601Z,3.83
2019-02-18T23:02:36.062Z,4.03
2019-02-18T23:05:06.495Z,3.80
2019-02-18T23:07:37.231Z,3.33
2019-02-18T23:10:07.645Z,3.60
2019-02-18T23:12:38.086Z,4.10
2019-02-18T23:15:08.522Z,3.80
2019-02-18T23:17:38.927Z,4.03
2019-02-18T23:20:09.474Z,4.17
2019-02-18T23:22:41.216Z,4.50
2019-02-18T23:25:11.961Z,4.73
2019-02-18T23:27:42.480Z,5.60
2019-02-18T23:30:13.266Z,4.70
2019-02-18T23:32:43.770Z,4.70
2019-02-18T23:35:14.579Z,4.70
2019-02-18T23:37:45.029Z,4.93
2019-02-18T23:40:15.586Z,5.03
2019-02-18T23:42:46.064Z,4.67
2019-02-18T23:45:16.490Z,4.73
2019-02-18T23:47:46.918Z,4.83
2019-02-18T23:50:17.346Z,5.57
2019-02-18T23:52:47.782Z,5.10
2019-02-18T23:55:18.200Z,4.07
2019-02-18T23:57:48.698Z,4.80
